createdAt,value
2023-11-28T00:00:34.662Z,92.06
2023-11-28T00:03:01.376Z,92.46
2023-11-28T00:05:28.132Z,92.90
2023-11-28T00:07:54.784Z,92.63
2023-11-28T00:10:21.630Z,92.69
2023-11-28T00:12:48.075Z,92.94
2023-11-28T00:15:15.742Z,92.81
2023-11-28T00:17:42.444Z,92.58
2023-11-28T00:20:09.515Z,92.81
2023-11-28T00:22:36.024Z,92.72
2023-11-28T00:25:02.585Z,92.83
2023-11-28T00:27:29.071Z,92.77
2023-11-28T00:29:55.564Z,92.91
2023-11-28T00:32:21.998Z,93.22
2023-11-28T00:34:48.535Z,93.05
2023-11-28T00:37:15.033Z,93.05
2023-11-28T00:39:41.806Z,93.42
2023-11-28T00:42:08.249Z,93.44
2023-11-28T00:44:34.773Z,93.60
2023-11-28T00:47:01.426Z,93.71
2023-11-28T00:49:28.028Z,93.50
2023-11-28T00:51:54.922Z,93.61
2023-11-28T00:54:21.922Z,93.59
2023-11-28T00:56:48.693Z,93.65
2023-11-28T00:59:15.163Z,93.10
2023-11-28T01:01:41.710Z,93.77
2023-11-28T01:04:08.352Z,93.72
2023-11-28T01:06:34.984Z,94.40
2023-11-28T01:09:01.966Z,94.05
2023-11-28T01:11:28.497Z,94.89
2023-11-28T01:13:55.501Z,94.52
2023-11-28T01:16:22.505Z,94.79
2023-11-28T01:18:50.539Z,94.98
2023-11-28T01:21:16.976Z,94.99
2023-11-28T01:23:43.421Z,94.89
2023-11-28T01:26:09.862Z,94.62
2023-11-28T01:28:36.516Z,95.09
2023-11-28T01:31:03.126Z,95.37
2023-11-28T01:33:29.576Z,94.62
2023-11-28T01:35:56.021Z,94.92
2023-11-28T01:38:22.515Z,94.97
2023-11-28T01:40:51.955Z,95.09
2023-11-28T01:43:30.299Z,95.65
2023-11-28T01:45:58.342Z,94.72
2023-11-28T01:48:25.142Z,94.89
2023-11-28T01:50:52.321Z,94.71
2023-11-28T01:53:20.660Z,94.42
2023-11-28T01:55:47.810Z,94.62
2023-11-28T01:58:14.644Z,94.43
2023-11-28T02:00:41.120Z,94.48
2023-11-28T02:03:10.654Z,94.56
2023-11-28T02:05:38.690Z,94.30
2023-11-28T02:08:07.136Z,93.89
2023-11-28T02:10:35.832Z,94.25
2023-11-28T02:13:02.758Z,93.90
2023-11-28T02:15:43.762Z,94.24
2023-11-28T02:18:11.134Z,93.89
2023-11-28T02:20:38.865Z,94.05
2023-11-28T02:23:06.452Z,94.03
2023-11-28T02:25:41.319Z,94.00
2023-11-28T02:28:07.810Z,93.82
2023-11-28T02:30:34.244Z,93.44
2023-11-28T02:33:00.712Z,93.82
2023-11-28T02:35:27.164Z,93.93
2023-11-28T02:37:53.721Z,93.07
2023-11-28T02:40:20.235Z,93.36
2023-11-28T02:42:46.803Z,92.92
2023-11-28T02:45:13.312Z,93.09
2023-11-28T02:47:39.790Z,93.02
2023-11-28T02:50:06.939Z,92.20
2023-11-28T02:52:33.395Z,92.50
2023-11-28T02:54:59.949Z,92.43
2023-11-28T02:57:26.461Z,92.90
2023-11-28T02:59:52.892Z,92.92
2023-11-28T03:02:19.385Z,92.49
2023-11-28T03:04:46.036Z,92.62
2023-11-28T03:07:12.494Z,92.67
2023-11-28T03:09:38.965Z,93.03
2023-11-28T03:12:05.556Z,92.46
2023-11-28T03:14:31.988Z,92.58
2023-11-28T03:16:58.548Z,92.90
2023-11-28T03:19:25.654Z,93.47
2023-11-28T03:21:52.116Z,93.37
2023-11-28T03:24:18.782Z,92.99
2023-11-28T03:26:45.383Z,93.51
2023-11-28T03:29:11.984Z,93.46
2023-11-28T03:31:38.820Z,93.55
2023-11-28T03:34:06.283Z,94.12
2023-11-28T03:36:32.728Z,93.95
2023-11-28T03:38:59.193Z,94.13
2023-11-28T03:41:25.874Z,93.80
2023-11-28T03:43:52.433Z,93.99
2023-11-28T03:46:19.247Z,93.97
2023-11-28T03:48:45.807Z,94.39
2023-11-28T03:51:12.301Z,94.08
2023-11-28T03:53:38.840Z,93.46
2023-11-28T03:56:09.354Z,93.58
2023-11-28T03:58:36.622Z,94.37
2023-11-28T04:01:06.081Z,94.24
2023-11-28T04:03:33.290Z,93.72
2023-11-28T04:06:00.395Z,93.70
2023-11-28T04:08:26.891Z,93.87
2023-11-28T04:10:53.482Z,93.01
2023-11-28T04:13:20.015Z,92.95
2023-11-28T04:15:46.446Z,92.28
2023-11-28T04:18:13.119Z,92.38
2023-11-28T04:20:39.989Z,92.38
2023-11-28T04:23:07.862Z,92.23
2023-11-28T04:25:35.047Z,92.25
2023-11-28T04:28:02.364Z,92.23
2023-11-28T04:30:28.904Z,92.24
2023-11-28T04:32:55.511Z,91.90
2023-11-28T04:35:21.983Z,92.32
2023-11-28T04:37:48.818Z,92.12
2023-11-28T04:40:15.366Z,91.67
2023-11-28T04:42:41.855Z,91.93
2023-11-28T04:45:12.609Z,92.33
2023-11-28T04:47:39.367Z,91.90
2023-11-28T04:50:06.488Z,92.23
2023-11-28T04:52:33.247Z,92.44
2023-11-28T04:54:59.724Z,92.08
2023-11-28T04:57:26.330Z,92.10
2023-11-28T04:59:52.794Z,92.62
2023-11-28T05:02:19.533Z,92.39
2023-11-28T05:04:46.159Z,92.09
2023-11-28T05:07:14.905Z,92.15
2023-11-28T05:09:41.333Z,92.51
2023-11-28T05:12:09.789Z,92.15
2023-11-28T05:14:37.335Z,91.93
2023-11-28T05:17:05.658Z,91.71
2023-11-28T05:19:33.054Z,91.92
2023-11-28T05:21:59.560Z,91.77
2023-11-28T05:24:26.042Z,91.98
2023-11-28T05:26:52.778Z,91.81
2023-11-28T05:29:19.248Z,91.73
2023-11-28T05:31:45.770Z,92.18
2023-11-28T05:34:12.772Z,91.97
2023-11-28T05:36:39.294Z,91.67
2023-11-28T05:39:06.052Z,92.05
2023-11-28T05:41:32.502Z,91.87
2023-11-28T05:43:59.150Z,91.75
2023-11-28T05:46:25.798Z,91.47
2023-11-28T05:48:52.271Z,91.40
2023-11-28T05:51:18.990Z,91.22
2023-11-28T05:53:45.404Z,91.09
2023-11-28T05:56:13.415Z,90.43
2023-11-28T05:58:40.304Z,90.51
2023-11-28T06:01:07.226Z,90.27
2023-11-28T06:03:34.134Z,90.42
2023-11-28T06:06:01.022Z,90.18
2023-11-28T06:08:27.664Z,89.75
2023-11-28T06:10:54.126Z,90.00
2023-11-28T06:13:20.557Z,90.40
2023-11-28T06:15:47.188Z,90.58
2023-11-28T06:18:13.709Z,90.25
2023-11-28T06:20:40.260Z,89.70
2023-11-28T06:23:06.771Z,90.58
2023-11-28T06:25:33.684Z,90.87
2023-11-28T06:28:00.246Z,89.57
2023-11-28T06:30:28.377Z,89.68
2023-11-28T06:32:54.992Z,90.03
2023-11-28T06:35:21.513Z,90.09
2023-11-28T06:37:49.448Z,90.72
2023-11-28T06:40:17.210Z,90.70
2023-11-28T06:42:44.809Z,90.92
2023-11-28T06:45:12.808Z,90.36
2023-11-28T06:47:40.206Z,90.19
2023-11-28T06:50:07.202Z,89.67
2023-11-28T06:52:37.901Z,89.34
2023-11-28T06:55:08.610Z,89.66
2023-11-28T06:57:36.211Z,89.47
2023-11-28T07:00:02.844Z,89.04
2023-11-28T07:02:29.595Z,89.56
2023-11-28T07:04:56.447Z,89.70
2023-11-28T07:07:22.921Z,89.40
2023-11-28T07:09:49.495Z,88.96
2023-11-28T07:12:15.987Z,89.24
2023-11-28T07:14:42.573Z,88.62
2023-11-28T07:17:09.100Z,89.17
2023-11-28T07:19:35.750Z,88.22
2023-11-28T07:22:02.228Z,88.85
2023-11-28T07:24:28.674Z,88.41
2023-11-28T07:26:55.289Z,88.39
2023-11-28T07:29:21.749Z,87.55
2023-11-28T07:31:48.280Z,87.84
2023-11-28T07:34:15.086Z,87.81
2023-11-28T07:36:46.195Z,88.45
2023-11-28T07:39:15.391Z,88.39
2023-11-28T07:41:41.963Z,87.76
2023-11-28T07:44:08.585Z,88.45
2023-11-28T07:46:35.237Z,87.67
2023-11-28T07:49:01.999Z,88.13
2023-11-28T07:51:28.506Z,88.23
2023-11-28T07:53:54.997Z,88.14
2023-11-28T07:56:21.719Z,87.59
2023-11-28T07:58:48.328Z,88.27
2023-11-28T08:01:14.786Z,86.95
2023-11-28T08:03:41.370Z,86.53
2023-11-28T08:06:08.143Z,87.11
2023-11-28T08:08:35.513Z,87.20
2023-11-28T08:11:02.112Z,87.40
2023-11-28T08:13:29.214Z,86.86
2023-11-28T08:15:59.164Z,87.21
2023-11-28T08:18:32.740Z,87.69
2023-11-28T08:21:03.706Z,87.98
2023-11-28T08:23:30.230Z,87.52
2023-11-28T08:25:56.766Z,87.71
2023-11-28T08:28:25.059Z,86.91
2023-11-28T08:30:51.909Z,87.01
2023-11-28T08:33:19.538Z,86.65
2023-11-28T08:35:48.480Z,86.46
2023-11-28T08:38:15.134Z,86.46
2023-11-28T08:40:41.782Z,86.09
2023-11-28T08:43:08.290Z,86.52
2023-11-28T08:45:34.893Z,85.89
2023-11-28T08:48:01.408Z,85.48
2023-11-28T08:50:27.941Z,86.10
2023-11-28T08:52:54.537Z,85.95
2023-11-28T08:55:21.088Z,86.25
2023-11-28T08:57:47.835Z,86.81
2023-11-28T09:00:15.674Z,86.79
2023-11-28T09:02:44.000Z,87.05
2023-11-28T09:05:10.591Z,86.76
2023-11-28T09:07:38.622Z,86.26
2023-11-28T09:10:06.689Z,86.09
2023-11-28T09:12:33.202Z,86.23
2023-11-28T09:14:59.804Z,86.59
2023-11-28T09:17:26.398Z,85.73
2023-11-28T09:19:53.328Z,85.81
2023-11-28T09:22:19.928Z,85.91
2023-11-28T09:24:46.920Z,84.94
2023-11-28T09:27:14.133Z,85.38
2023-11-28T09:29:40.940Z,85.96
2023-11-28T09:32:08.091Z,85.80
2023-11-28T09:34:34.925Z,86.14
2023-11-28T09:37:02.533Z,85.52
2023-11-28T09:39:29.369Z,84.89
2023-11-28T09:42:02.117Z,85.10
2023-11-28T09:44:33.875Z,84.99
2023-11-28T09:47:09.283Z,85.49
2023-11-28T09:49:41.813Z,84.28
2023-11-28T09:52:09.894Z,82.34
2023-11-28T09:54:40.473Z,83.24
2023-11-28T09:57:08.695Z,83.99
2023-11-28T09:59:44.733Z,84.58
2023-11-28T10:02:16.569Z,84.63
2023-11-28T10:04:44.066Z,83.71
2023-11-28T10:07:12.648Z,83.50
2023-11-28T10:09:42.282Z,82.99
2023-11-28T10:12:11.346Z,81.79
2023-11-28T10:14:40.426Z,82.75
2023-11-28T10:17:09.904Z,81.36
2023-11-28T10:19:36.698Z,81.28
2023-11-28T10:22:07.417Z,81.43
2023-11-28T10:24:35.128Z,80.39
2023-11-28T10:27:02.804Z,80.70
2023-11-28T10:29:29.955Z,81.04
2023-11-28T10:31:57.242Z,81.56
2023-11-28T10:34:24.082Z,81.52
2023-11-28T10:36:50.760Z,80.42
2023-11-28T10:39:20.977Z,80.84
2023-11-28T10:41:51.001Z,80.76
2023-11-28T10:44:17.975Z,79.08
2023-11-28T10:46:45.139Z,80.01
2023-11-28T10:49:11.869Z,79.13
2023-11-28T10:51:38.609Z,80.10
2023-11-28T10:54:12.535Z,81.66
2023-11-28T10:56:49.454Z,81.27
2023-11-28T10:59:22.442Z,82.01
2023-11-28T11:01:51.444Z,81.66
2023-11-28T11:04:18.904Z,81.86
2023-11-28T11:06:45.793Z,81.30
2023-11-28T11:09:12.760Z,81.57
2023-11-28T11:11:41.624Z,81.35
2023-11-28T11:14:21.114Z,82.46
2023-11-28T11:16:55.686Z,81.89
2023-11-28T11:19:24.198Z,82.07
2023-11-28T11:21:50.705Z,82.41
2023-11-28T11:24:19.533Z,82.45
2023-11-28T11:26:47.588Z,83.04
2023-11-28T11:29:20.947Z,83.33
2023-11-28T11:31:49.368Z,82.67
2023-11-28T11:34:38.072Z,84.08
2023-11-28T11:37:09.811Z,82.89
2023-11-28T11:39:38.891Z,82.63
2023-11-28T11:42:10.520Z,82.05
2023-11-28T11:44:41.678Z,81.47
2023-11-28T11:47:19.747Z,82.56
2023-11-28T11:49:47.860Z,81.57
2023-11-28T11:52:15.967Z,81.23
2023-11-28T11:54:44.019Z,80.44
2023-11-28T11:57:12.720Z,79.99
2023-11-28T11:59:42.835Z,80.38
2023-11-28T12:02:10.552Z,80.82
2023-11-28T12:04:45.173Z,80.30
2023-11-28T12:07:13.934Z,80.13
2023-11-28T12:09:42.385Z,80.61
2023-11-28T12:12:14.152Z,81.25
2023-11-28T12:14:41.905Z,81.28
2023-11-28T12:17:08.870Z,80.43
2023-11-28T12:19:35.630Z,80.56
2023-11-28T12:22:05.143Z,80.59
2023-11-28T12:24:32.921Z,80.47
2023-11-28T12:27:04.277Z,80.70
2023-11-28T12:29:37.523Z,80.61
2023-11-28T12:32:05.224Z,79.93
2023-11-28T12:34:36.127Z,79.37
2023-11-28T12:37:04.547Z,78.42
2023-11-28T12:39:31.266Z,78.72
2023-11-28T12:41:58.557Z,80.20
2023-11-28T12:44:26.835Z,80.32
2023-11-28T12:46:54.124Z,80.42
2023-11-28T12:49:22.078Z,80.93
2023-11-28T12:51:49.365Z,80.88
2023-11-28T12:54:18.676Z,81.32
2023-11-28T12:56:54.624Z,81.74
2023-11-28T12:59:24.475Z,81.72
2023-11-28T13:01:57.142Z,81.52
2023-11-28T13:04:24.981Z,81.93
2023-11-28T13:07:05.818Z,81.13
2023-11-28T13:09:41.939Z,80.16
2023-11-28T13:12:10.737Z,80.77
2023-11-28T13:14:38.432Z,80.19
2023-11-28T13:17:08.018Z,80.02
2023-11-28T13:19:39.203Z,79.28
2023-11-28T13:22:07.036Z,78.96
2023-11-28T13:24:33.681Z,78.82
2023-11-28T13:27:00.393Z,79.38
2023-11-28T13:29:26.972Z,78.95
2023-11-28T13:31:54.580Z,79.24
2023-11-28T13:34:21.421Z,78.87
2023-11-28T13:36:49.683Z,78.81
2023-11-28T13:39:17.756Z,79.38
2023-11-28T13:41:44.923Z,78.91
2023-11-28T13:44:11.725Z,78.78
2023-11-28T13:46:38.454Z,79.25
2023-11-28T13:49:05.161Z,79.65
2023-11-28T13:51:32.005Z,78.83
2023-11-28T13:53:58.589Z,78.49
2023-11-28T13:56:25.439Z,78.13
2023-11-28T13:58:52.279Z,77.30
2023-11-28T14:01:19.105Z,77.01
2023-11-28T14:03:45.815Z,77.58
2023-11-28T14:06:16.063Z,76.90
2023-11-28T14:08:42.599Z,78.32
2023-11-28T14:11:09.402Z,77.27
2023-11-28T14:13:36.455Z,76.71
2023-11-28T14:16:06.290Z,76.28
2023-11-28T14:18:33.303Z,76.25
2023-11-28T14:21:04.281Z,76.16
2023-11-28T14:23:32.226Z,76.03
2023-11-28T14:25:59.181Z,76.77
2023-11-28T14:28:25.992Z,76.80
2023-11-28T14:30:52.755Z,76.82
2023-11-28T14:33:19.572Z,77.13
2023-11-28T14:35:46.423Z,77.68
2023-11-28T14:38:13.128Z,77.33
2023-11-28T14:40:40.401Z,77.44
2023-11-28T14:43:07.954Z,77.85
2023-11-28T14:45:34.667Z,78.31
2023-11-28T14:48:02.095Z,78.58
2023-11-28T14:50:29.052Z,78.41
2023-11-28T14:52:55.836Z,78.80
2023-11-28T14:55:22.642Z,78.90
2023-11-28T14:57:49.473Z,78.91
2023-11-28T15:00:20.856Z,79.24
2023-11-28T15:02:47.789Z,79.57
2023-11-28T15:05:14.997Z,79.41
2023-11-28T15:07:43.225Z,79.15
2023-11-28T15:10:10.227Z,79.24
2023-11-28T15:12:37.048Z,79.39
2023-11-28T15:15:03.917Z,79.65
2023-11-28T15:17:30.769Z,80.03
2023-11-28T15:19:59.360Z,80.04
2023-11-28T15:22:27.691Z,80.40
2023-11-28T15:24:56.020Z,80.12
2023-11-28T15:27:23.381Z,80.52
2023-11-28T15:29:53.951Z,80.36
2023-11-28T15:32:21.297Z,80.78
2023-11-28T15:34:49.566Z,80.30
2023-11-28T15:37:16.600Z,80.11
2023-11-28T15:39:43.371Z,80.64
2023-11-28T15:42:10.997Z,80.22
2023-11-28T15:44:37.537Z,80.20
2023-11-28T15:47:04.520Z,80.60
2023-11-28T15:49:40.017Z,80.41
2023-11-28T15:52:14.973Z,80.59
2023-11-28T15:54:41.824Z,81.18
2023-11-28T15:57:11.923Z,81.07
2023-11-28T15:59:39.381Z,81.73
2023-11-28T16:02:07.383Z,82.49
2023-11-28T16:04:34.958Z,83.12
2023-11-28T16:07:01.488Z,83.13
2023-11-28T16:09:28.029Z,83.56
2023-11-28T16:11:54.578Z,83.94
2023-11-28T16:14:21.192Z,84.37
2023-11-28T16:16:47.961Z,84.65
2023-11-28T16:19:14.692Z,84.71
2023-11-28T16:21:41.782Z,85.14
2023-11-28T16:24:10.161Z,85.16
2023-11-28T16:26:40.118Z,85.37
2023-11-28T16:29:06.809Z,85.33
2023-11-28T16:31:33.439Z,85.71
2023-11-28T16:34:00.146Z,85.20
2023-11-28T16:36:26.728Z,85.41
2023-11-28T16:38:53.353Z,85.42
2023-11-28T16:41:19.800Z,85.31
2023-11-28T16:43:46.999Z,85.57
2023-11-28T16:46:13.549Z,85.37
2023-11-28T16:48:40.012Z,85.57
2023-11-28T16:51:11.409Z,85.21
2023-11-28T16:53:38.457Z,85.08
2023-11-28T16:56:06.914Z,85.42
2023-11-28T16:58:36.270Z,85.22
2023-11-28T17:01:03.682Z,85.13
2023-11-28T17:03:30.669Z,84.92
2023-11-28T17:05:57.337Z,84.55
2023-11-28T17:08:24.077Z,84.66
2023-11-28T17:10:50.960Z,84.62
2023-11-28T17:13:17.577Z,84.66
2023-11-28T17:15:44.072Z,84.77
2023-11-28T17:18:10.849Z,85.00
2023-11-28T17:20:37.478Z,84.51
2023-11-28T17:23:04.097Z,84.59
2023-11-28T17:25:30.705Z,84.60
2023-11-28T17:27:57.203Z,84.58
2023-11-28T17:30:23.634Z,84.46
2023-11-28T17:32:50.276Z,84.41
2023-11-28T17:35:18.606Z,84.77
2023-11-28T17:37:45.342Z,84.90
2023-11-28T17:40:12.330Z,84.65
2023-11-28T17:42:38.757Z,84.56
2023-11-28T17:45:05.836Z,84.85
2023-11-28T17:50:04.240Z,84.91
2023-11-28T17:52:30.800Z,85.02
2023-11-28T17:54:59.489Z,84.75
2023-11-28T17:57:26.800Z,84.87
2023-11-28T17:59:53.829Z,84.94
2023-11-28T18:02:20.558Z,84.74
2023-11-28T18:04:47.234Z,85.00
2023-11-28T18:07:14.200Z,84.90
2023-11-28T18:09:40.860Z,85.01
2023-11-28T18:12:07.939Z,84.66
2023-11-28T18:14:35.736Z,84.50
2023-11-28T18:17:03.102Z,84.40
2023-11-28T18:19:30.781Z,84.57
2023-11-28T18:21:57.536Z,84.14
2023-11-28T18:24:23.988Z,83.50
2023-11-28T18:26:50.488Z,84.01
2023-11-28T18:29:17.292Z,83.64
2023-11-28T18:31:43.992Z,83.64
2023-11-28T18:34:10.548Z,83.27
2023-11-28T18:36:39.987Z,83.67
2023-11-28T18:39:07.262Z,82.80
2023-11-28T18:41:41.190Z,83.80
2023-11-28T18:44:12.079Z,82.86
2023-11-28T18:46:45.713Z,83.12
2023-11-28T18:49:12.439Z,83.15
2023-11-28T18:51:39.454Z,82.68
2023-11-28T18:54:07.933Z,83.05
2023-11-28T18:56:34.642Z,83.00
2023-11-28T18:59:01.268Z,82.86
2023-11-28T19:01:29.294Z,82.46
2023-11-28T19:03:57.595Z,82.55
2023-11-28T19:06:30.780Z,82.25
2023-11-28T19:08:58.606Z,82.47
2023-11-28T19:11:27.396Z,82.59
2023-11-28T19:13:55.777Z,82.19
2023-11-28T19:16:29.372Z,82.23
2023-11-28T19:18:57.185Z,82.25
2023-11-28T19:21:25.031Z,82.11
2023-11-28T19:23:52.205Z,82.20
2023-11-28T19:26:20.479Z,82.84
2023-11-28T19:28:47.382Z,82.43
2023-11-28T19:31:15.111Z,82.87
2023-11-28T19:33:42.957Z,81.97
2023-11-28T19:36:12.833Z,81.86
2023-11-28T19:38:42.145Z,82.33
2023-11-28T19:41:11.748Z,81.59
2023-11-28T19:43:39.528Z,80.82
2023-11-28T19:46:08.138Z,81.47
2023-11-28T19:48:35.045Z,80.50
2023-11-28T19:51:01.769Z,80.88
2023-11-28T19:53:30.124Z,80.72
2023-11-28T19:55:57.284Z,80.88
2023-11-28T19:58:23.734Z,81.16
2023-11-28T20:00:51.631Z,81.15
2023-11-28T20:03:19.401Z,81.45
2023-11-28T20:05:46.830Z,81.53
2023-11-28T20:08:13.989Z,81.46
2023-11-28T20:10:40.539Z,81.32
2023-11-28T20:13:07.387Z,80.97
2023-11-28T20:15:35.866Z,80.56
2023-11-28T20:18:03.322Z,80.62
2023-11-28T20:20:30.144Z,80.93
2023-11-28T20:22:57.460Z,80.40
2023-11-28T20:25:24.270Z,80.63
2023-11-28T20:27:50.900Z,79.77
2023-11-28T20:30:18.027Z,79.82
2023-11-28T20:32:45.717Z,80.10
2023-11-28T20:35:12.496Z,79.78
2023-11-28T20:37:39.952Z,79.44
2023-11-28T20:40:09.032Z,79.90
2023-11-28T20:42:35.522Z,79.81
2023-11-28T20:45:02.184Z,79.78
2023-11-28T20:47:29.841Z,79.97
2023-11-28T20:49:56.359Z,80.16
2023-11-28T20:52:22.946Z,80.44
2023-11-28T20:54:49.607Z,79.97
2023-11-28T20:57:16.041Z,79.87
2023-11-28T20:59:42.510Z,80.19
2023-11-28T21:02:09.093Z,80.21
2023-11-28T21:04:35.854Z,80.17
2023-11-28T21:07:02.479Z,80.13
2023-11-28T21:09:29.049Z,80.63
2023-11-28T21:11:55.571Z,80.44
2023-11-28T21:14:23.938Z,81.02
2023-11-28T21:16:50.531Z,80.63
2023-11-28T21:19:18.117Z,80.35
2023-11-28T21:21:44.732Z,80.96
2023-11-28T21:24:11.870Z,80.68
2023-11-28T21:26:42.673Z,80.97
2023-11-28T21:29:09.351Z,81.09
2023-11-28T21:31:36.129Z,81.48
2023-11-28T21:34:02.686Z,81.66
2023-11-28T21:36:31.372Z,81.63
2023-11-28T21:38:58.198Z,81.48
2023-11-28T21:41:25.244Z,80.75
2023-11-28T21:43:51.765Z,81.48
2023-11-28T21:46:19.312Z,81.22
2023-11-28T21:48:46.928Z,81.73
2023-11-28T21:51:14.376Z,82.19
2023-11-28T21:53:41.058Z,82.31
2023-11-28T21:56:07.663Z,82.33
2023-11-28T21:58:34.583Z,82.08
2023-11-28T22:01:01.591Z,81.81
2023-11-28T22:03:28.338Z,82.07
2023-11-28T22:05:55.050Z,82.56
2023-11-28T22:08:23.352Z,82.42
2023-11-28T22:10:50.688Z,82.37
2023-11-28T22:13:18.705Z,82.38
2023-11-28T22:15:46.208Z,82.66
2023-11-28T22:18:13.727Z,82.66
2023-11-28T22:20:40.437Z,82.80
2023-11-28T22:23:06.978Z,83.21
2023-11-28T22:25:33.420Z,82.65
2023-11-28T22:27:59.970Z,83.15
2023-11-28T22:30:26.572Z,83.08
2023-11-28T22:32:53.057Z,82.99
2023-11-28T22:35:19.638Z,84.01
2023-11-28T22:37:47.954Z,83.29
2023-11-28T22:40:16.183Z,83.43
2023-11-28T22:42:43.814Z,83.81
2023-11-28T22:45:12.610Z,83.85
2023-11-28T22:47:39.991Z,84.12
2023-11-28T22:50:10.109Z,84.56
2023-11-28T22:52:36.838Z,84.89
2023-11-28T22:55:06.199Z,84.77
2023-11-28T22:57:33.890Z,84.80
2023-11-28T23:00:01.637Z,85.39
2023-11-28T23:02:29.370Z,85.00
2023-11-28T23:04:56.198Z,85.13
2023-11-28T23:07:23.595Z,85.60
2023-11-28T23:09:50.594Z,85.55
2023-11-28T23:12:18.772Z,85.57
2023-11-28T23:14:46.248Z,85.24
2023-11-28T23:17:13.039Z,86.19
2023-11-28T23:19:39.508Z,86.04
2023-11-28T23:22:06.063Z,86.10
2023-11-28T23:24:32.511Z,86.00
2023-11-28T23:27:00.322Z,86.49
2023-11-28T23:29:26.924Z,86.19
2023-11-28T23:31:54.611Z,86.71
2023-11-28T23:34:21.401Z,86.28
2023-11-28T23:36:48.803Z,86.83
2023-11-28T23:39:19.270Z,87.17
2023-11-28T23:41:46.082Z,86.93
2023-11-28T23:44:12.830Z,86.87
2023-11-28T23:46:39.608Z,87.18
2023-11-28T23:49:06.143Z,87.14
2023-11-28T23:51:33.112Z,87.41
2023-11-28T23:54:00.260Z,87.18
2023-11-28T23:56:27.213Z,87.76
2023-11-28T23:58:53.710Z,87.96
